Time;durP1;ratioP1;P1;durP2;ratioP2;P2;SDS_P1;SDS_P2;PMS_P1;PMS_P2;Temp;Humidity;BMP_temperature;BMP_pressure;BME280_temperature;BME280_humidity;BME280_pressure;Samples;Min_cycle;Max_cycle;Signal;HPM_P1;HPM_P2
2021/08/08 00:02:02;;;;;;;1.80;1.00;;;;;;;;;;5059020;28;20405;-78
2021/08/08 00:04:28;;;;;;;1.00;0.50;;;;;;;;;;5076211;28;20032;-78
2021/08/08 00:06:53;;;;;;;1.48;0.60;;;;;;;;;;5076522;28;20474;-78
2021/08/08 00:09:19;;;;;;;3.95;0.70;;;;;;;;;;5076318;28;20045;-78
2021/08/08 00:11:44;;;;;;;4.20;0.68;;;;;;;;;;5074672;28;20032;-79
2021/08/08 00:14:10;;;;;;;0.95;0.73;;;;;;;;;;5058201;28;20559;-78
2021/08/08 00:16:36;;;;;;;1.08;0.75;;;;;;;;;;5058181;28;20039;-78
2021/08/08 00:19:01;;;;;;;1.80;0.47;;;;;;;;;;5075012;28;20123;-77
2021/08/08 00:21:27;;;;;;;3.40;0.68;;;;;;;;;;5074749;28;20095;-78
2021/08/08 00:23:53;;;;;;;1.23;0.57;;;;;;;;;;5057801;28;20036;-78
2021/08/08 00:26:18;;;;;;;2.95;0.70;;;;;;;;;;5090559;28;20451;-77
2021/08/08 00:28:45;;;;;;;1.27;0.50;;;;;;;;;;5093896;28;20448;-78
2021/08/08 00:31:11;;;;;;;0.65;0.60;;;;;;;;;;5077173;28;20036;-77
2021/08/08 00:33:36;;;;;;;1.17;0.50;;;;;;;;;;5094871;28;20417;-78
2021/08/08 00:36:03;;;;;;;1.67;0.55;;;;;;;;;;5077253;28;20378;-79
2021/08/08 00:38:28;;;;;;;2.10;0.60;;;;;;;;;;5077259;28;20031;-78
2021/08/08 00:40:54;;;;;;;1.42;0.85;;;;;;;;;;5092693;28;20028;-78
2021/08/08 00:43:21;;;;;;;1.50;0.68;;;;;;;;;;5077151;28;20401;-78
2021/08/08 00:45:48;;;;;;;1.23;0.50;;;;;;;;;;5076953;28;20031;-77
2021/08/08 00:48:18;;;;;;;2.40;0.45;;;;;;;;;;5093606;28;20034;-77
2021/08/08 00:50:47;;;;;;;2.63;0.60;;;;;;;;;;5077262;28;20036;-76
2021/08/08 00:53:17;;;;;;;2.67;0.85;;;;;;;;;;5085902;28;20031;-78
2021/08/08 00:55:47;;;;;;;1.83;0.60;;;;;;;;;;5072835;28;20120;-78
2021/08/08 00:58:12;;;;;;;0.70;0.40;;;;;;;;;;5074446;28;20500;-76
2021/08/08 01:00:46;;;;;;;1.77;0.80;;;;;;;;;;5057062;28;20105;-77
2021/08/08 01:03:15;;;;;;;3.97;0.93;;;;;;;;;;5057238;28;20490;-77
2021/08/08 01:05:51;;;;;;;0.68;0.60;;;;;;;;;;5073053;28;20123;-77
2021/08/08 01:08:26;;;;;;;2.28;0.80;;;;;;;;;;5056754;28;20036;-77
2021/08/08 01:10:54;;;;;;;3.97;0.70;;;;;;;;;;5072584;28;20063;-76
2021/08/08 01:13:21;;;;;;;1.48;0.60;;;;;;;;;;5073096;28;20119;-77
2021/08/08 01:15:49;;;;;;;1.27;0.55;;;;;;;;;;5072800;28;20059;-77
2021/08/08 01:18:17;;;;;;;1.85;0.68;;;;;;;;;;5072954;28;20037;-78
2021/08/08 01:20:45;;;;;;;1.90;0.77;;;;;;;;;;5072689;28;20470;-77
2021/08/08 01:23:14;;;;;;;0.60;0.50;;;;;;;;;;5083414;28;20488;-77
2021/08/08 01:25:41;;;;;;;3.90;0.73;;;;;;;;;;5072560;28;20028;-76
2021/08/08 01:28:08;;;;;;;2.13;0.60;;;;;;;;;;5072871;28;20036;-76
2021/08/08 01:30:37;;;;;;;1.67;0.63;;;;;;;;;;5072560;28;20128;-77
2021/08/08 01:33:05;;;;;;;4.32;1.88;;;;;;;;;;5072235;28;20084;-78
2021/08/08 01:35:36;;;;;;;1.75;0.90;;;;;;;;;;5072605;28;20032;-76
2021/08/08 01:38:02;;;;;;;4.18;0.95;;;;;;;;;;5072522;28;20055;-79
2021/08/08 01:40:34;;;;;;;0.85;0.52;;;;;;;;;;5056187;28;20031;-76
2021/08/08 01:43:03;;;;;;;1.88;0.40;;;;;;;;;;5072672;28;20028;-76
2021/08/08 01:45:29;;;;;;;0.90;0.70;;;;;;;;;;5055374;28;20060;-78
2021/08/08 01:47:59;;;;;;;1.35;0.73;;;;;;;;;;5055560;28;20024;-77
2021/08/08 01:50:31;;;;;;;4.18;0.80;;;;;;;;;;5055734;28;20044;-76
2021/08/08 01:52:59;;;;;;;1.55;0.80;;;;;;;;;;5071881;28;20115;-76
2021/08/08 01:55:30;;;;;;;2.47;0.80;;;;;;;;;;5091070;28;20032;-76
2021/08/08 01:58:01;;;;;;;2.58;1.08;;;;;;;;;;5092160;28;20114;-77
2021/08/08 02:00:28;;;;;;;4.30;1.08;;;;;;;;;;5092407;28;20051;-77
2021/08/08 02:03:00;;;;;;;4.72;0.98;;;;;;;;;;5076285;28;20063;-76
2021/08/08 02:05:36;;;;;;;5.17;1.03;;;;;;;;;;5076970;28;20036;-76
2021/08/08 02:08:02;;;;;;;2.60;0.85;;;;;;;;;;5075691;28;20278;-76
2021/08/08 02:10:37;;;;;;;2.75;0.77;;;;;;;;;;5092037;28;20071;-77
2021/08/08 02:13:04;;;;;;;2.25;0.80;;;;;;;;;;5075428;28;20127;-76
2021/08/08 02:15:29;;;;;;;1.77;0.90;;;;;;;;;;5092137;28;20119;-76
2021/08/08 02:18:00;;;;;;;1.80;0.88;;;;;;;;;;5092093;28;20030;-77
2021/08/08 02:20:29;;;;;;;0.85;0.73;;;;;;;;;;5092065;28;20039;-76
2021/08/08 02:22:59;;;;;;;2.75;0.80;;;;;;;;;;5092114;28;20040;-77
2021/08/08 02:25:27;;;;;;;2.28;1.05;;;;;;;;;;5073114;28;20029;-76
2021/08/08 02:27:53;;;;;;;2.30;0.70;;;;;;;;;;5072102;28;20375;-76
2021/08/08 02:30:28;;;;;;;3.00;0.77;;;;;;;;;;5071730;28;20178;-76
2021/08/08 02:32:54;;;;;;;5.30;0.90;;;;;;;;;;5054935;28;20072;-76
2021/08/08 02:35:21;;;;;;;3.72;0.80;;;;;;;;;;5071467;28;20025;-78
2021/08/08 02:37:47;;;;;;;1.67;0.85;;;;;;;;;;5055098;28;20047;-77
2021/08/08 02:40:13;;;;;;;1.33;0.90;;;;;;;;;;5054727;28;20540;-77
2021/08/08 02:42:42;;;;;;;2.28;0.93;;;;;;;;;;5071813;28;20033;-76
2021/08/08 02:45:08;;;;;;;2.00;0.60;;;;;;;;;;5055021;28;20135;-76
2021/08/08 02:47:34;;;;;;;0.80;0.55;;;;;;;;;;5055123;28;20036;-76
2021/08/08 02:50:02;;;;;;;4.38;0.80;;;;;;;;;;5071452;28;20052;-76
2021/08/08 02:52:28;;;;;;;2.67;1.10;;;;;;;;;;5071472;28;20078;-77
2021/08/08 02:54:56;;;;;;;2.35;1.10;;;;;;;;;;5071464;28;20031;-76
2021/08/08 02:57:26;;;;;;;2.65;0.65;;;;;;;;;;5054770;28;20112;-76
2021/08/08 02:59:53;;;;;;;6.00;1.58;;;;;;;;;;5071399;28;20050;-77
2021/08/08 03:02:19;;;;;;;0.68;0.55;;;;;;;;;;5071777;28;20129;-76
2021/08/08 03:04:44;;;;;;;2.33;0.93;;;;;;;;;;5075119;28;20040;-77
2021/08/08 03:07:11;;;;;;;2.38;0.82;;;;;;;;;;5075022;28;20040;-76
2021/08/08 03:09:36;;;;;;;1.33;0.70;;;;;;;;;;5058197;28;20099;-77
2021/08/08 03:12:02;;;;;;;2.67;0.70;;;;;;;;;;5075111;28;20037;-76
2021/08/08 03:14:34;;;;;;;0.70;0.68;;;;;;;;;;5074912;28;20040;-77
2021/08/08 03:16:59;;;;;;;3.80;0.98;;;;;;;;;;5074786;28;20039;-77
2021/08/08 03:19:26;;;;;;;3.45;0.73;;;;;;;;;;5074919;28;20564;-77
2021/08/08 03:21:54;;;;;;;1.88;1.00;;;;;;;;;;5058698;28;20032;-76
2021/08/08 03:24:19;;;;;;;2.63;0.90;;;;;;;;;;5092496;28;20111;-76
2021/08/08 03:26:45;;;;;;;1.60;0.98;;;;;;;;;;5078082;28;20124;-76
2021/08/08 03:29:12;;;;;;;1.75;0.70;;;;;;;;;;5095076;28;20089;-76
2021/08/08 03:31:41;;;;;;;2.25;0.80;;;;;;;;;;5094668;28;20118;-76
2021/08/08 03:34:08;;;;;;;1.77;0.93;;;;;;;;;;5078140;28;20046;-77
2021/08/08 03:36:33;;;;;;;5.53;0.88;;;;;;;;;;5094916;28;20035;-76
2021/08/08 03:38:59;;;;;;;5.13;1.08;;;;;;;;;;5094364;28;20455;-76
2021/08/08 03:41:24;;;;;;;2.22;0.75;;;;;;;;;;5094944;28;20028;-76
2021/08/08 03:43:50;;;;;;;3.13;0.63;;;;;;;;;;5094831;28;20039;-77
2021/08/08 03:46:15;;;;;;;1.50;1.00;;;;;;;;;;5094685;28;20485;-78
2021/08/08 03:48:41;;;;;;;0.70;0.63;;;;;;;;;;5094743;28;20036;-77
2021/08/08 03:51:09;;;;;;;2.97;0.80;;;;;;;;;;5077916;28;20024;-76
2021/08/08 03:53:35;;;;;;;7.03;2.00;;;;;;;;;;5083227;28;20089;-76
2021/08/08 03:56:01;;;;;;;1.70;1.00;;;;;;;;;;5074286;28;20032;-76
2021/08/08 03:58:31;;;;;;;0.85;0.75;;;;;;;;;;5074257;28;20044;-76
2021/08/08 04:01:00;;;;;;;1.42;0.82;;;;;;;;;;5057642;28;20162;-78
2021/08/08 04:03:31;;;;;;;3.22;1.10;;;;;;;;;;5074216;28;20037;-77
2021/08/08 04:05:57;;;;;;;9.65;1.00;;;;;;;;;;5057266;28;20028;-77
2021/08/08 04:08:23;;;;;;;2.33;1.10;;;;;;;;;;5057144;28;20496;-78
2021/08/08 04:10:51;;;;;;;2.25;1.17;;;;;;;;;;5057279;28;20496;-77
2021/08/08 04:13:16;;;;;;;4.72;1.00;;;;;;;;;;5057591;28;20028;-78
2021/08/08 04:15:42;;;;;;;4.40;1.13;;;;;;;;;;5075114;28;20029;-78
2021/08/08 04:18:08;;;;;;;2.08;1.08;;;;;;;;;;5075280;28;20111;-77
2021/08/08 04:20:33;;;;;;;2.50;1.30;;;;;;;;;;5057232;28;20111;-77
2021/08/08 04:22:59;;;;;;;6.13;1.40;;;;;;;;;;5061471;28;20032;-77
2021/08/08 04:25:24;;;;;;;2.33;1.05;;;;;;;;;;5076922;28;20032;-77
2021/08/08 04:27:50;;;;;;;2.70;1.00;;;;;;;;;;5094296;28;20032;-76
2021/08/08 04:30:16;;;;;;;1.77;1.20;;;;;;;;;;5095239;28;20036;-78
2021/08/08 04:32:41;;;;;;;1.42;1.00;;;;;;;;;;5093978;28;20048;-77
2021/08/08 04:35:10;;;;;;;1.95;0.88;;;;;;;;;;5094024;28;20036;-76
2021/08/08 04:37:35;;;;;;;1.85;0.90;;;;;;;;;;5094211;28;20077;-76
2021/08/08 04:40:01;;;;;;;2.05;1.08;;;;;;;;;;5077097;28;20076;-77
2021/08/08 04:42:27;;;;;;;7.53;0.88;;;;;;;;;;5093809;28;20537;-78
2021/08/08 04:44:53;;;;;;;2.10;1.17;;;;;;;;;;5076989;28;20067;-77
2021/08/08 04:47:18;;;;;;;2.30;1.00;;;;;;;;;;5093736;28;20481;-77
2021/08/08 04:49:45;;;;;;;3.20;1.20;;;;;;;;;;5077064;28;20206;-77
2021/08/08 04:52:11;;;;;;;2.67;1.05;;;;;;;;;;5076851;28;20056;-76
2021/08/08 04:54:36;;;;;;;3.33;0.73;;;;;;;;;;5075945;28;20115;-76
2021/08/08 04:57:02;;;;;;;4.13;1.20;;;;;;;;;;5056609;28;20120;-77
2021/08/08 04:59:28;;;;;;;4.72;1.20;;;;;;;;;;5072948;28;20135;-78
2021/08/08 05:01:54;;;;;;;1.27;1.00;;;;;;;;;;5073135;28;20501;-76
2021/08/08 05:04:20;;;;;;;2.20;1.15;;;;;;;;;;5073150;28;20032;-77
2021/08/08 05:06:45;;;;;;;2.30;1.15;;;;;;;;;;5056225;28;20032;-76
2021/08/08 05:09:12;;;;;;;2.25;1.20;;;;;;;;;;5072965;28;20039;-77
2021/08/08 05:11:38;;;;;;;1.58;0.82;;;;;;;;;;5073071;28;20029;-78
2021/08/08 05:14:03;;;;;;;2.67;1.17;;;;;;;;;;5056142;28;20036;-77
2021/08/08 05:16:33;;;;;;;5.57;0.90;;;;;;;;;;5073081;28;20083;-76
2021/08/08 05:18:59;;;;;;;3.40;1.10;;;;;;;;;;5073059;28;20040;-76
2021/08/08 05:21:25;;;;;;;3.42;1.30;;;;;;;;;;5056251;28;20033;-77
2021/08/08 05:23:51;;;;;;;3.05;1.20;;;;;;;;;;5072505;28;20405;-77
2021/08/08 05:26:16;;;;;;;4.25;1.42;;;;;;;;;;5071889;28;20032;-77
2021/08/08 05:28:43;;;;;;;3.90;1.83;;;;;;;;;;5056174;28;20036;-76
2021/08/08 05:31:09;;;;;;;4.90;2.28;;;;;;;;;;5072386;28;20035;-77
2021/08/08 05:33:35;;;;;;;5.13;1.73;;;;;;;;;;5055476;28;20044;-77
2021/08/08 05:36:01;;;;;;;5.07;1.30;;;;;;;;;;5072541;28;20029;-77
2021/08/08 05:38:27;;;;;;;7.15;1.10;;;;;;;;;;5073605;28;20486;-77
2021/08/08 05:40:52;;;;;;;2.55;0.93;;;;;;;;;;5072489;28;20040;-77
2021/08/08 05:43:19;;;;;;;3.97;1.13;;;;;;;;;;5055630;28;20025;-77
2021/08/08 05:45:47;;;;;;;4.18;1.13;;;;;;;;;;5072279;28;20036;-77
2021/08/08 05:48:14;;;;;;;4.40;1.50;;;;;;;;;;5056219;28;20020;-78
2021/08/08 05:50:41;;;;;;;3.25;1.20;;;;;;;;;;5071978;28;20065;-77
2021/08/08 05:53:07;;;;;;;2.55;0.85;;;;;;;;;;5054689;28;20047;-77
2021/08/08 05:55:35;;;;;;;5.82;1.02;;;;;;;;;;5084421;28;20421;-77
2021/08/08 05:58:02;;;;;;;6.30;1.00;;;;;;;;;;5055286;28;20548;-77
2021/08/08 06:00:28;;;;;;;3.55;1.45;;;;;;;;;;5072016;28;20039;-77
2021/08/08 06:03:09;;;;;;;4.25;1.25;;;;;;;;;;5073481;28;20035;-78
2021/08/08 06:05:35;;;;;;;;;;;;;;;;;;5072748;28;20028;-77
2021/08/08 06:08:01;;;;;;;4.13;1.30;;;;;;;;;;5074325;28;19913;-77
2021/08/08 06:10:27;;;;;;;4.63;0.93;;;;;;;;;;5071741;28;20123;-77
2021/08/08 06:12:53;;;;;;;3.17;1.02;;;;;;;;;;5073756;28;20028;-78
2021/08/08 06:15:20;;;;;;;2.05;0.90;;;;;;;;;;5058080;28;20417;-79
2021/08/08 06:17:45;;;;;;;8.25;1.73;;;;;;;;;;5057658;28;20032;-78
2021/08/08 06:20:11;;;;;;;3.03;0.90;;;;;;;;;;5074241;28;20424;-79
2021/08/08 06:22:40;;;;;;;4.95;1.35;;;;;;;;;;5059707;28;20032;-80
2021/08/08 06:25:06;;;;;;;4.45;1.58;;;;;;;;;;5080773;28;20077;-80
2021/08/08 06:27:32;;;;;;;3.55;1.17;;;;;;;;;;5087642;28;20035;-81
2021/08/08 06:29:58;;;;;;;3.55;1.33;;;;;;;;;;5104160;28;20046;-84
2021/08/08 06:32:23;;;;;;;2.55;1.10;;;;;;;;;;5089228;28;20052;-82
2021/08/08 06:34:49;;;;;;;6.20;1.17;;;;;;;;;;5091943;28;20028;-81
2021/08/08 06:37:14;;;;;;;4.60;1.00;;;;;;;;;;5089468;28;20036;-81
2021/08/08 06:39:43;;;;;;;3.15;1.50;;;;;;;;;;5091570;28;20492;-82
2021/08/08 06:42:09;;;;;;;5.30;1.75;;;;;;;;;;5103569;28;20032;-83
2021/08/08 06:44:40;;;;;;;6.28;1.52;;;;;;;;;;5091967;28;20089;-80
2021/08/08 06:47:06;;;;;;;3.15;1.30;;;;;;;;;;5090364;28;20036;-80
2021/08/08 06:49:32;;;;;;;3.70;1.15;;;;;;;;;;5092830;28;20037;-78
2021/08/08 06:51:57;;;;;;;5.78;1.70;;;;;;;;;;5089274;28;20095;-80
2021/08/08 06:54:23;;;;;;;6.10;2.13;;;;;;;;;;5086144;28;20121;-80
2021/08/08 06:56:49;;;;;;;2.60;1.30;;;;;;;;;;5081494;28;20051;-79
2021/08/08 06:59:14;;;;;;;1.50;0.85;;;;;;;;;;5082461;28;20040;-80
2021/08/08 07:01:40;;;;;;;3.05;1.15;;;;;;;;;;5087872;28;20034;-79
2021/08/08 07:04:05;;;;;;;2.65;1.00;;;;;;;;;;5107605;28;20039;-80
2021/08/08 07:06:31;;;;;;;4.20;1.35;;;;;;;;;;5105812;28;20047;-79
2021/08/08 07:08:59;;;;;;;3.65;1.08;;;;;;;;;;5088442;28;20035;-81
2021/08/08 07:11:26;;;;;;;5.60;1.73;;;;;;;;;;5088504;28;20463;-80
2021/08/08 07:13:52;;;;;;;3.75;1.30;;;;;;;;;;5089190;28;20032;-79
2021/08/08 07:16:17;;;;;;;8.55;1.33;;;;;;;;;;5089918;28;20055;-80
2021/08/08 07:18:44;;;;;;;5.00;1.13;;;;;;;;;;5090262;28;20038;-81
2021/08/08 07:21:10;;;;;;;4.50;1.65;;;;;;;;;;5089716;28;20059;-80
2021/08/08 07:23:36;;;;;;;4.18;1.25;;;;;;;;;;5104658;28;20028;-82
2021/08/08 07:26:01;;;;;;;4.05;1.45;;;;;;;;;;5089186;28;20047;-81
2021/08/08 07:28:27;;;;;;;5.88;1.38;;;;;;;;;;5106430;28;20032;-80
2021/08/08 07:30:55;;;;;;;7.05;1.70;;;;;;;;;;5089619;28;20028;-80
2021/08/08 07:33:20;;;;;;;4.50;1.67;;;;;;;;;;5092109;28;20068;-81
2021/08/08 07:35:51;;;;;;;5.22;1.95;;;;;;;;;;5092532;28;20036;-82
2021/08/08 07:38:16;;;;;;;6.97;1.50;;;;;;;;;;5092493;28;20070;-81
2021/08/08 07:40:43;;;;;;;2.53;1.05;;;;;;;;;;5092521;28;20024;-82
2021/08/08 07:43:10;;;;;;;7.45;1.60;;;;;;;;;;5092681;28;20040;-81
2021/08/08 07:45:37;;;;;;;4.10;1.15;;;;;;;;;;5091642;28;20032;-80
2021/08/08 07:48:02;;;;;;;7.38;1.65;;;;;;;;;;5090985;28;20107;-81
2021/08/08 07:50:29;;;;;;;3.78;1.30;;;;;;;;;;5089992;28;20028;-82
2021/08/08 07:52:55;;;;;;;8.55;1.67;;;;;;;;;;5086907;28;20591;-81
2021/08/08 07:55:21;;;;;;;6.03;1.60;;;;;;;;;;5085239;28;20111;-80
2021/08/08 07:57:46;;;;;;;4.50;1.30;;;;;;;;;;5086347;28;20493;-81
2021/08/08 08:00:12;;;;;;;4.88;1.70;;;;;;;;;;5084556;28;20020;-81
2021/08/08 08:02:43;;;;;;;5.78;1.42;;;;;;;;;;5101314;28;20040;-85
2021/08/08 08:05:11;;;;;;;11.02;1.73;;;;;;;;;;5085323;28;20456;-81
2021/08/08 08:07:36;;;;;;;4.95;1.40;;;;;;;;;;5105202;28;20481;-81
2021/08/08 08:10:04;;;;;;;5.30;1.27;;;;;;;;;;5079151;28;20032;-82
2021/08/08 08:12:30;;;;;;;4.53;1.33;;;;;;;;;;5084558;28;20086;-80
2021/08/08 08:14:55;;;;;;;6.82;1.45;;;;;;;;;;5065477;28;20036;-83
2021/08/08 08:17:27;;;;;;;4.18;1.35;;;;;;;;;;5063006;28;20052;-86
2021/08/08 08:19:56;;;;;;;5.38;1.50;;;;;;;;;;5057563;28;20071;-85
2021/08/08 08:22:28;;;;;;;4.90;1.48;;;;;;;;;;5062371;28;20036;-85
2021/08/08 08:24:54;;;;;;;6.55;1.55;;;;;;;;;;5056361;28;20036;-86
2021/08/08 08:27:19;;;;;;;4.57;1.48;;;;;;;;;;5063344;28;20123;-80
2021/08/08 08:29:45;;;;;;;6.07;1.38;;;;;;;;;;5061329;28;20033;-82
2021/08/08 08:32:10;;;;;;;5.90;1.50;;;;;;;;;;5023912;28;1141203;-81
2021/08/08 08:34:36;;;;;;;13.85;1.73;;;;;;;;;;5084824;28;20066;-84
2021/08/08 08:37:01;;;;;;;6.40;1.38;;;;;;;;;;5063884;28;20040;-80
2021/08/08 08:39:27;;;;;;;3.30;1.08;;;;;;;;;;5082765;28;20036;-81
2021/08/08 08:41:57;;;;;;;7.40;1.40;;;;;;;;;;5080595;28;20123;-80
2021/08/08 08:44:25;;;;;;;12.38;1.77;;;;;;;;;;5061997;28;20547;-81
2021/08/08 08:46:52;;;;;;;2.78;1.13;;;;;;;;;;5080057;28;20083;-81
2021/08/08 08:49:21;;;;;;;6.95;1.98;;;;;;;;;;5062156;28;20032;-81
2021/08/08 08:51:55;;;;;;;5.15;1.98;;;;;;;;;;5062372;28;20035;-81
2021/08/08 08:54:22;;;;;;;4.78;1.70;;;;;;;;;;5060256;28;20024;-79
2021/08/08 08:56:49;;;;;;;7.55;1.98;;;;;;;;;;5065546;28;20032;-82
2021/08/08 08:59:15;;;;;;;5.00;1.42;;;;;;;;;;5083164;28;20028;-81
2021/08/08 09:01:41;;;;;;;4.82;1.27;;;;;;;;;;5070273;28;20016;-79
2021/08/08 09:04:07;;;;;;;4.97;1.80;;;;;;;;;;5089907;28;20047;-79
2021/08/08 09:06:33;;;;;;;4.28;1.10;;;;;;;;;;5089130;28;20124;-80
2021/08/08 09:09:01;;;;;;;7.30;1.20;;;;;;;;;;5086301;28;20422;-81
2021/08/08 09:11:40;;;;;;;4.40;1.08;;;;;;;;;;5062768;28;20035;-82
2021/08/08 09:14:12;;;;;;;2.70;0.90;;;;;;;;;;5066996;28;20012;-81
2021/08/08 09:16:43;;;;;;;5.25;1.05;;;;;;;;;;5082427;28;20033;-80
2021/08/08 09:19:22;;;;;;;4.95;1.20;;;;;;;;;;5081550;28;20036;-81
2021/08/08 09:21:53;;;;;;;4.80;0.93;;;;;;;;;;5066566;28;20066;-83
2021/08/08 09:24:28;;;;;;;5.47;1.63;;;;;;;;;;5083840;28;20501;-82
2021/08/08 09:27:02;;;;;;;3.47;1.52;;;;;;;;;;5100103;28;20081;-82
2021/08/08 09:29:28;;;;;;;4.85;1.05;;;;;;;;;;5098766;28;20032;-80
2021/08/08 09:31:54;;;;;;;7.63;1.60;;;;;;;;;;5082934;28;20070;-80
2021/08/08 09:34:40;;;;;;;10.38;1.20;;;;;;;;;;5081667;28;20043;-86
2021/08/08 09:37:17;;;;;;;4.10;1.55;;;;;;;;;;5079643;28;20040;-84
2021/08/08 09:39:44;;;;;;;3.17;1.40;;;;;;;;;;5081978;28;20085;-85
2021/08/08 09:42:16;;;;;;;4.30;1.25;;;;;;;;;;5081740;28;20482;-83
2021/08/08 09:45:10;;;;;;;5.28;0.93;;;;;;;;;;5085633;28;20043;-80
2021/08/08 09:47:47;;;;;;;3.65;1.30;;;;;;;;;;5087859;28;20043;-82
2021/08/08 09:50:14;;;;;;;5.65;1.60;;;;;;;;;;5073270;28;20059;-84
2021/08/08 09:52:40;;;;;;;4.45;1.58;;;;;;;;;;5078658;28;20421;-84
2021/08/08 09:55:16;;;;;;;3.53;1.25;;;;;;;;;;5072557;28;20490;-83
2021/08/08 09:57:42;;;;;;;2.72;0.93;;;;;;;;;;5059519;28;20029;-85
2021/08/08 10:00:20;;;;;;;2.95;1.42;;;;;;;;;;5100477;28;20033;-82
2021/08/08 10:02:49;;;;;;;8.80;1.63;;;;;;;;;;5081487;28;20040;-83
2021/08/08 10:05:15;;;;;;;5.38;1.63;;;;;;;;;;5093046;28;20103;-80
2021/08/08 10:07:40;;;;;;;7.15;1.23;;;;;;;;;;5060104;28;20064;-80
2021/08/08 10:10:06;;;;;;;4.10;1.20;;;;;;;;;;5077693;28;20047;-80
2021/08/08 10:12:48;;;;;;;3.30;1.30;;;;;;;;;;5059340;28;20037;-80
2021/08/08 10:15:14;;;;;;;2.38;1.33;;;;;;;;;;5065658;28;20040;-79
2021/08/08 10:17:44;;;;;;;2.97;1.08;;;;;;;;;;5090833;28;20401;-80
2021/08/08 10:20:10;;;;;;;2.97;1.17;;;;;;;;;;5079616;28;20036;-81
2021/08/08 10:22:42;;;;;;;4.47;1.10;;;;;;;;;;5082596;28;20477;-80
2021/08/08 10:25:09;;;;;;;4.97;1.27;;;;;;;;;;5090536;28;20060;-79
2021/08/08 10:27:35;;;;;;;3.45;1.50;;;;;;;;;;5069220;28;20115;-81
2021/08/08 10:30:02;;;;;;;5.25;1.52;;;;;;;;;;5087883;28;20086;-80
2021/08/08 10:32:29;;;;;;;2.78;1.10;;;;;;;;;;5075762;28;20580;-80
2021/08/08 10:34:56;;;;;;;5.75;1.05;;;;;;;;;;5077599;28;20040;-80
2021/08/08 10:37:24;;;;;;;2.53;1.05;;;;;;;;;;5076680;28;20033;-80
2021/08/08 10:39:50;;;;;;;3.70;1.05;;;;;;;;;;5075999;28;20047;-80
2021/08/08 10:42:16;;;;;;;2.95;1.02;;;;;;;;;;5077770;28;20032;-80
2021/08/08 10:44:46;;;;;;;4.65;1.10;;;;;;;;;;5059906;28;20032;-79
2021/08/08 10:47:26;;;;;;;10.80;1.30;;;;;;;;;;5060166;28;20044;-81
2021/08/08 10:49:51;;;;;;;2.97;1.10;;;;;;;;;;5082401;28;20033;-80
2021/08/08 10:52:17;;;;;;;3.13;1.23;;;;;;;;;;5061919;28;20116;-78
2021/08/08 10:54:46;;;;;;;4.03;1.40;;;;;;;;;;5101504;28;20036;-78
2021/08/08 10:57:13;;;;;;;3.67;1.02;;;;;;;;;;5098122;28;20035;-80
2021/08/08 10:59:50;;;;;;;3.83;1.10;;;;;;;;;;5117400;28;20469;-80
2021/08/08 11:02:25;;;;;;;6.45;1.17;;;;;;;;;;5116939;28;20031;-80
2021/08/08 11:04:50;;;;;;;5.23;1.70;;;;;;;;;;5121462;28;20071;-79
2021/08/08 11:07:24;;;;;;;3.47;1.58;;;;;;;;;;5101259;28;20128;-79
2021/08/08 11:09:49;;;;;;;3.13;1.33;;;;;;;;;;5113591;28;20594;-78
2021/08/08 11:12:16;;;;;;;4.88;1.20;;;;;;;;;;5115954;28;20036;-77
2021/08/08 11:14:48;;;;;;;3.97;1.13;;;;;;;;;;5116278;28;20088;-78
2021/08/08 11:17:14;;;;;;;6.78;1.33;;;;;;;;;;5115105;28;20035;-77
2021/08/08 11:19:41;;;;;;;8.68;1.27;;;;;;;;;;5114294;28;20039;-78
2021/08/08 11:22:15;;;;;;;3.42;1.20;;;;;;;;;;5101426;28;20110;-78
2021/08/08 11:24:43;;;;;;;3.13;1.00;;;;;;;;;;5115747;28;20511;-78
2021/08/08 11:27:10;;;;;;;4.47;1.40;;;;;;;;;;5113916;28;20096;-77
2021/08/08 11:29:36;;;;;;;3.03;1.35;;;;;;;;;;5096560;28;20050;-76
2021/08/08 11:32:04;;;;;;;2.03;0.88;;;;;;;;;;5096212;28;20101;-77
2021/08/08 11:34:30;;;;;;;4.18;1.20;;;;;;;;;;5096484;28;20039;-77
2021/08/08 11:36:58;;;;;;;4.88;1.27;;;;;;;;;;5079529;28;20084;-78
2021/08/08 11:39:33;;;;;;;3.83;1.25;;;;;;;;;;5099921;28;20036;-79
2021/08/08 11:42:00;;;;;;;3.80;1.20;;;;;;;;;;5097349;28;20028;-76
2021/08/08 11:44:36;;;;;;;2.47;1.00;;;;;;;;;;5094566;28;20031;-77
2021/08/08 11:47:01;;;;;;;5.53;1.08;;;;;;;;;;5094869;28;20490;-77
2021/08/08 11:49:27;;;;;;;2.85;1.50;;;;;;;;;;5094792;28;20043;-77
2021/08/08 11:51:55;;;;;;;2.15;0.93;;;;;;;;;;5094650;28;20040;-78
2021/08/08 11:54:27;;;;;;;5.40;1.70;;;;;;;;;;5082023;28;20482;-77
2021/08/08 11:56:53;;;;;;;3.83;1.38;;;;;;;;;;5075567;28;20036;-77
2021/08/08 11:59:32;;;;;;;2.53;1.00;;;;;;;;;;5074438;28;20024;-77
2021/08/08 12:02:02;;;;;;;6.03;1.35;;;;;;;;;;5074361;28;20082;-77
2021/08/08 12:04:32;;;;;;;7.38;1.85;;;;;;;;;;5074139;28;20040;-77
2021/08/08 12:06:58;;;;;;;4.25;1.52;;;;;;;;;;5074330;28;20036;-77
2021/08/08 12:09:23;;;;;;;2.67;1.13;;;;;;;;;;5075304;28;20082;-77
2021/08/08 12:11:54;;;;;;;4.18;1.48;;;;;;;;;;5075465;28;20087;-76
2021/08/08 12:14:30;;;;;;;5.93;1.67;;;;;;;;;;5057394;28;20508;-77
2021/08/08 12:17:12;;;;;;;4.50;1.38;;;;;;;;;;5072971;28;20040;-78
2021/08/08 12:19:39;;;;;;;7.65;1.40;;;;;;;;;;5073294;28;20074;-77
2021/08/08 12:22:08;;;;;;;5.93;1.23;;;;;;;;;;5073995;28;20541;-77
2021/08/08 12:24:37;;;;;;;4.13;1.50;;;;;;;;;;5073840;28;20063;-77
2021/08/08 12:27:03;;;;;;;3.42;1.30;;;;;;;;;;5057023;28;20036;-78
2021/08/08 12:29:35;;;;;;;3.92;1.30;;;;;;;;;;5073965;28;20036;-77
2021/08/08 12:32:09;;;;;;;5.70;1.70;;;;;;;;;;5056730;28;20041;-77
2021/08/08 12:34:35;;;;;;;4.05;1.27;;;;;;;;;;5057189;28;20028;-77
2021/08/08 12:37:03;;;;;;;6.15;1.65;;;;;;;;;;5074450;28;20051;-78
2021/08/08 12:39:28;;;;;;;4.22;1.35;;;;;;;;;;5076415;28;20036;-77
2021/08/08 12:41:53;;;;;;;4.75;1.30;;;;;;;;;;5057140;28;20182;-80
2021/08/08 12:44:30;;;;;;;3.97;1.55;;;;;;;;;;5056867;28;20432;-78
2021/08/08 12:47:01;;;;;;;5.28;1.50;;;;;;;;;;5074711;28;20033;-77
2021/08/08 12:49:34;;;;;;;3.88;1.35;;;;;;;;;;5074869;28;20051;-77
2021/08/08 12:51:59;;;;;;;5.28;1.50;;;;;;;;;;5073122;28;20059;-77
2021/08/08 12:54:25;;;;;;;2.58;1.10;;;;;;;;;;5082650;28;20454;-77
2021/08/08 12:56:50;;;;;;;5.90;1.40;;;;;;;;;;5094419;28;20461;-77
2021/08/08 12:59:16;;;;;;;2.40;1.17;;;;;;;;;;5076488;28;20108;-77
2021/08/08 13:01:43;;;;;;;4.88;1.77;;;;;;;;;;5076390;28;20036;-77
2021/08/08 13:04:09;;;;;;;4.53;1.35;;;;;;;;;;5093528;28;20644;-77
2021/08/08 13:06:35;;;;;;;8.02;1.42;;;;;;;;;;5076443;28;20123;-77
2021/08/08 13:09:00;;;;;;;3.17;1.20;;;;;;;;;;5092984;28;20443;-76
2021/08/08 13:11:26;;;;;;;4.15;1.75;;;;;;;;;;5093182;28;20040;-77
2021/08/08 13:13:51;;;;;;;2.42;1.15;;;;;;;;;;5093299;28;20388;-77
2021/08/08 13:16:17;;;;;;;4.25;1.38;;;;;;;;;;5093130;28;20028;-77
2021/08/08 13:18:42;;;;;;;6.63;1.20;;;;;;;;;;5076421;28;20059;-77
2021/08/08 13:21:12;;;;;;;5.60;1.40;;;;;;;;;;5076308;28;20032;-77
2021/08/08 13:23:37;;;;;;;7.07;1.83;;;;;;;;;;5075177;28;20374;-77
2021/08/08 13:26:05;;;;;;;3.50;1.00;;;;;;;;;;5075920;28;20043;-77
2021/08/08 13:28:31;;;;;;;5.25;1.35;;;;;;;;;;5094266;28;20036;-77
2021/08/08 13:30:56;;;;;;;4.80;1.23;;;;;;;;;;5092933;28;20055;-77
2021/08/08 13:33:21;;;;;;;3.42;1.13;;;;;;;;;;5075765;28;20524;-77
2021/08/08 13:35:47;;;;;;;3.03;1.00;;;;;;;;;;5092829;28;20057;-77
2021/08/08 13:38:13;;;;;;;1.83;0.95;;;;;;;;;;5075079;28;20062;-77
2021/08/08 13:40:39;;;;;;;4.47;1.55;;;;;;;;;;5092691;28;20525;-77
2021/08/08 13:43:04;;;;;;;3.25;1.20;;;;;;;;;;5075676;28;20134;-77
2021/08/08 13:45:30;;;;;;;5.03;1.40;;;;;;;;;;5092615;28;20078;-77
2021/08/08 13:47:55;;;;;;;3.50;1.40;;;;;;;;;;5092696;28;20046;-77
2021/08/08 13:50:21;;;;;;;5.97;1.15;;;;;;;;;;5094052;28;20036;-77
2021/08/08 13:52:47;;;;;;;2.05;1.02;;;;;;;;;;5078718;28;20031;-77
2021/08/08 13:55:16;;;;;;;5.70;1.20;;;;;;;;;;5095981;28;20040;-77
2021/08/08 13:57:45;;;;;;;3.50;1.20;;;;;;;;;;5095697;28;20039;-77
2021/08/08 14:00:10;;;;;;;3.03;1.38;;;;;;;;;;5112893;28;20039;-77
2021/08/08 14:02:39;;;;;;;4.75;1.10;;;;;;;;;;5113166;28;20038;-77
2021/08/08 14:05:09;;;;;;;6.22;1.42;;;;;;;;;;5113058;28;20046;-77
2021/08/08 14:07:35;;;;;;;5.93;1.20;;;;;;;;;;5112905;28;20035;-77
2021/08/08 14:10:01;;;;;;;5.30;1.00;;;;;;;;;;5112195;28;20062;-77
2021/08/08 14:12:26;;;;;;;3.50;1.25;;;;;;;;;;5095350;28;20031;-76
2021/08/08 14:14:52;;;;;;;17.45;2.40;;;;;;;;;;5097845;28;20039;-78
2021/08/08 14:17:17;;;;;;;6.35;1.83;;;;;;;;;;5113890;28;20043;-78
2021/08/08 14:19:43;;;;;;;9.20;1.50;;;;;;;;;;5114177;28;20036;-78
2021/08/08 14:22:08;;;;;;;2.53;1.10;;;;;;;;;;5099027;28;20442;-79
2021/08/08 14:24:33;;;;;;;5.13;1.35;;;;;;;;;;5076432;28;20036;-78
2021/08/08 14:26:59;;;;;;;5.90;1.40;;;;;;;;;;5075219;28;20039;-78
2021/08/08 14:29:24;;;;;;;2.80;0.98;;;;;;;;;;5075205;28;20502;-77
2021/08/08 14:31:51;;;;;;;3.20;1.50;;;;;;;;;;5091971;28;20043;-78
2021/08/08 14:34:16;;;;;;;3.72;1.23;;;;;;;;;;5093222;28;20375;-78
2021/08/08 14:36:42;;;;;;;8.85;1.52;;;;;;;;;;5093501;28;20107;-78
2021/08/08 14:39:07;;;;;;;2.60;1.25;;;;;;;;;;5093235;28;20550;-77
2021/08/08 14:41:33;;;;;;;6.18;1.65;;;;;;;;;;5091839;28;20040;-77
2021/08/08 14:43:58;;;;;;;5.18;1.35;;;;;;;;;;5092502;28;20032;-77
2021/08/08 14:46:24;;;;;;;5.20;1.10;;;;;;;;;;5075173;28;20067;-76